Sand Point, AK

10:51 PM AKDT on September 03, 2015 (GMT -0800)
Sand Point | | Change Station
CLOSE
Current Station
Airport
Location: Sand Point,
Elevation: 23 ft
Nearby Weather Stations

Elev 23 ft 55.31 °N, 160.52 °W | Updated 15 minutes ago

Overcast
Overcast
55 °F
Feels Like 55 °F
N
6
Wind Variable Wind from West

Today
High -- | Low -- °F
--% Chance of Precip.
Yesterday
High -- | Low -- °F
Precip. -- in
7:51 AM 9:29 PM
Waning Gibbous, 62% visible
Pressure 29.89 in
Visibility 10.0 miles
Clouds Overcast 2200 ft
Dew Point 54 °F
Humidity 94%
Rainfall 0.00 in
Snow Depth Not available.
UV 0 out of 12
Pollen Not available.
Air Quality Not available.
Flu Activity Not available.
METAR PASD 040636Z AUTO 26005KT 10SM OVC022 13/12 A2989 RMK AO1
Pressure 29.89 in
Visibility 10.0 miles
Clouds Overcast 2200 ft
Dew Point 54 °F
Humidity 94%
Rainfall 0.00 in
Snow Depth Not available.
UV 0 out of 12
Pollen Not available.
Air Quality Not available.
Flu Activity Not available.
METAR PASD 040636Z AUTO 26005KT 10SM OVC022 13/12 A2989 RMK AO1

10-Day Weather Forecast

×

Almanac

Astronomy

Sep. 03, 2015 Rise Set
Actual Time
Civil Twilight
Nautical Twilight
Astronomical Twilight
Moon
Length of Visible Light
Length of Day
Tomorrow will be .
, % of the Moon is Illuminated

Today's Extremes

State Highs State Lows

Community

WunderPhotos

Upload Photos

1,852,132 photos uploaded!

WunderBlogs® & News

Nearby

Air Quality

  Air Quality AQ Index Pollutant
Not available.

Snow Depth

Station Depth Elevation

Earthquake Activity

City Distance Mag. Time & Date
Minimum magnitude displayed is 2.5.

Coastal Water Temperatures

Place Temperature

Stations

Nearby Weather Stations

Station Location Temp. Windchill Dew Point Humidity Wind Precip. Elev Updated Type